Time;durP1;ratioP1;P1;durP2;ratioP2;P2;SDS_P1;SDS_P2;PMS_P1;PMS_P2;Temp;Humidity;BMP_temperature;BMP_pressure;BME280_temperature;BME280_humidity;BME280_pressure;Samples;Min_cycle;Max_cycle;Signal;HPM_P1;HPM_P2
2023/08/11 00:01:35;;;;;;;;;;;;;;;21.96;56.40;102055.09;5065004;28;19912;-61
2023/08/11 00:04:00;;;;;;;;;;;;;;;21.95;56.45;102059.66;5064807;28;19913;-61
2023/08/11 00:06:25;;;;;;;;;;;;;;;21.94;56.10;102055.28;5064624;28;19921;-57
2023/08/11 00:08:52;;;;;;;;;;;;;;;21.95;56.10;102048.00;5064687;28;19917;-60
2023/08/11 00:11:18;;;;;;;;;;;;;;;21.93;56.36;102048.16;5064445;28;20550;-60
2023/08/11 00:13:43;;;;;;;;;;;;;;;21.94;56.18;102049.00;5063952;28;19952;-61
2023/08/11 00:16:08;;;;;;;;;;;;;;;21.93;55.98;102053.56;5065063;28;20294;-61
2023/08/11 00:18:33;;;;;;;;;;;;;;;21.93;56.08;102050.03;5064354;28;20369;-60
2023/08/11 00:20:59;;;;;;;;;;;;;;;21.92;56.29;102051.03;5063444;28;19929;-61
2023/08/11 00:23:24;;;;;;;;;;;;;;;21.92;56.08;102051.88;5065012;28;20459;-61
2023/08/11 00:25:50;;;;;;;;;;;;;;;21.91;56.28;102050.16;5064284;28;19917;-60
2023/08/11 00:28:15;;;;;;;;;;;;;;;21.91;56.09;102041.19;5064022;28;20007;-60
2023/08/11 00:30:40;;;;;;;;;;;;;;;21.90;55.97;102051.19;5061194;28;19935;-61
2023/08/11 00:33:06;;;;;;;;;;;;;;;21.89;56.24;102041.38;5064428;28;19938;-61
2023/08/11 00:35:31;;;;;;;;;;;;;;;21.90;56.25;102037.66;5064183;28;19974;-60
2023/08/11 00:37:56;;;;;;;;;;;;;;;21.89;56.27;102040.53;5063923;28;20622;-60
2023/08/11 00:40:23;;;;;;;;;;;;;;;21.88;55.96;102036.13;5064206;28;19913;-61
2023/08/11 00:42:49;;;;;;;;;;;;;;;21.88;56.11;102039.69;5095431;28;20026;-60
2023/08/11 00:45:14;;;;;;;;;;;;;;;21.88;56.25;102042.38;5062856;28;19920;-58
2023/08/11 00:47:41;;;;;;;;;;;;;;;21.86;56.15;102033.56;5064717;28;19913;-61
2023/08/11 00:50:07;;;;;;;;;;;;;;;21.86;56.02;102033.56;5064031;28;19921;-61
2023/08/11 00:52:32;;;;;;;;;;;;;;;21.86;56.26;102036.28;5096058;28;19919;-60
2023/08/11 00:54:57;;;;;;;;;;;;;;;21.86;56.12;102032.72;5063583;28;19969;-58
2023/08/11 00:57:23;;;;;;;;;;;;;;;21.86;56.07;102032.72;5064334;28;19920;-61
2023/08/11 00:59:48;;;;;;;;;;;;;;;21.85;56.00;102036.44;5061752;28;19920;-57
2023/08/11 01:02:13;;;;;;;;;;;;;;;21.84;56.16;102024.75;5062442;28;19988;-56
2023/08/11 01:04:39;;;;;;;;;;;;;;;21.83;56.17;102023.03;5063199;28;19912;-60
2023/08/11 01:07:04;;;;;;;;;;;;;;;21.84;56.09;102029.34;5063705;28;19971;-61
2023/08/11 01:09:39;;;;;;;;;;;;;;;21.84;56.10;102026.63;5063869;28;19923;-61
2023/08/11 01:12:23;;;;;;;;;;;;;;;21.83;55.85;102020.34;5092943;28;19913;-60
2023/08/11 01:14:49;;;;;;;;;;;;;;;21.83;56.14;102012.22;5061651;28;19913;-60
2023/08/11 01:17:14;;;;;;;;;;;;;;;21.82;55.79;102010.53;5063746;28;19996;-60
2023/08/11 01:19:39;;;;;;;;;;;;;;;21.82;55.98;102010.53;5095865;28;19923;-61
2023/08/11 01:22:07;;;;;;;;;;;;;;;21.82;56.10;102010.53;5098020;28;19920;-60
2023/08/11 01:24:32;;;;;;;;;;;;;;;21.81;56.10;102008.84;5051976;28;19925;-58
2023/08/11 01:26:57;;;;;;;;;;;;;;;21.81;56.01;102013.41;5063205;28;19931;-61
2023/08/11 01:29:23;;;;;;;;;;;;;;;21.80;55.99;102012.56;5063231;28;19913;-60
2023/08/11 01:31:49;;;;;;;;;;;;;;;21.80;55.98;102011.72;5062141;28;19916;-60
2023/08/11 01:34:14;;;;;;;;;;;;;;;21.79;56.20;102007.28;5063190;28;20368;-61
2023/08/11 01:36:40;;;;;;;;;;;;;;;21.79;56.20;102013.56;5063042;28;19912;-62
2023/08/11 01:39:05;;;;;;;;;;;;;;;21.78;56.18;102011.84;5063436;28;19924;-62
2023/08/11 01:41:31;;;;;;;;;;;;;;;21.78;55.79;102003.72;5063744;28;20010;-61
2023/08/11 01:43:56;;;;;;;;;;;;;;;21.78;55.89;101997.47;5062512;28;19959;-62
2023/08/11 01:46:22;;;;;;;;;;;;;;;21.78;55.94;101997.47;5063299;28;19916;-62
2023/08/11 01:48:47;;;;;;;;;;;;;;;21.77;56.00;101993.06;5061699;28;19927;-62
2023/08/11 01:51:12;;;;;;;;;;;;;;;21.77;56.08;101993.06;5063227;28;19934;-62
2023/08/11 01:53:37;;;;;;;;;;;;;;;21.76;55.96;101989.53;5095197;28;19984;-62
2023/08/11 01:56:05;;;;;;;;;;;;;;;21.75;55.85;101985.13;5063777;28;19916;-62
2023/08/11 01:58:30;;;;;;;;;;;;;;;21.75;56.11;101986.97;5062776;28;19955;-62
2023/08/11 02:00:56;;;;;;;;;;;;;;;21.75;56.02;101985.13;5094768;28;19913;-62
2023/08/11 02:03:22;;;;;;;;;;;;;;;21.75;55.94;101978.84;5063222;28;19958;-62
2023/08/11 02:05:47;;;;;;;;;;;;;;;21.74;56.15;101979.84;5062319;28;19964;-62
2023/08/11 02:08:17;;;;;;;;;;;;;;;21.73;55.70;101976.31;5063131;28;20421;-60
2023/08/11 02:10:42;;;;;;;;;;;;;;;21.72;55.81;101977.31;5062816;28;19917;-61
2023/08/11 02:13:09;;;;;;;;;;;;;;;21.73;56.16;101978.16;5062599;28;19996;-60
2023/08/11 02:15:34;;;;;;;;;;;;;;;21.73;55.80;101980.88;5063633;28;19917;-60
2023/08/11 02:17:59;;;;;;;;;;;;;;;21.72;55.87;101982.75;5062750;28;19923;-59
2023/08/11 02:20:24;;;;;;;;;;;;;;;21.71;55.67;101984.59;5062361;28;19931;-55
2023/08/11 02:22:49;;;;;;;;;;;;;;;21.71;55.91;101986.47;5062714;28;19927;-59
2023/08/11 02:25:15;;;;;;;;;;;;;;;21.70;55.99;101980.16;5062905;28;19917;-60
2023/08/11 02:27:40;;;;;;;;;;;;;;;21.70;55.81;101984.75;5062663;28;19913;-60
2023/08/11 02:30:06;;;;;;;;;;;;;;;21.70;55.99;101985.59;5062103;28;19974;-62
2023/08/11 02:32:32;;;;;;;;;;;;;;;21.70;55.76;101979.31;5062989;28;19913;-61
2023/08/11 02:34:57;;;;;;;;;;;;;;;21.69;55.89;101974.94;5061880;28;19992;-58
2023/08/11 02:37:22;;;;;;;;;;;;;;;21.67;55.77;101972.41;5062965;28;19912;-62
2023/08/11 02:39:47;;;;;;;;;;;;;;;21.68;56.01;101970.53;5062288;28;19971;-60
2023/08/11 02:42:13;;;;;;;;;;;;;;;21.66;55.83;101965.28;5062905;28;19920;-62
2023/08/11 02:44:38;;;;;;;;;;;;;;;21.67;55.83;101974.25;5065858;28;19935;-62
2023/08/11 02:47:03;;;;;;;;;;;;;;;21.67;55.88;101974.25;5099038;28;19920;-62
2023/08/11 02:49:28;;;;;;;;;;;;;;;21.66;56.07;101961.72;5066058;28;19916;-63
2023/08/11 02:51:53;;;;;;;;;;;;;;;21.65;55.63;101970.84;5066198;28;19934;-62
2023/08/11 02:54:19;;;;;;;;;;;;;;;21.65;55.90;101962.72;5066439;28;19963;-62
2023/08/11 02:56:45;;;;;;;;;;;;;;;21.64;55.72;101959.19;5065907;28;19972;-62
2023/08/11 02:59:10;;;;;;;;;;;;;;;21.64;56.03;101961.03;5065743;28;20023;-62
2023/08/11 03:01:36;;;;;;;;;;;;;;;21.63;55.92;101960.19;5066074;28;20011;-62
2023/08/11 03:04:01;;;;;;;;;;;;;;;21.64;55.92;101963.75;5066027;28;19971;-62
2023/08/11 03:06:26;;;;;;;;;;;;;;;21.63;56.03;101952.06;5065769;28;20326;-59
2023/08/11 03:08:52;;;;;;;;;;;;;;;21.63;55.74;101957.50;5065307;28;19913;-62
2023/08/11 03:11:17;;;;;;;;;;;;;;;21.62;55.68;101960.34;5066106;28;19912;-62
2023/08/11 03:13:42;;;;;;;;;;;;;;;21.62;55.59;101954.91;5065224;28;19959;-62
2023/08/11 03:16:07;;;;;;;;;;;;;;;21.62;55.69;101957.63;5066494;28;19916;-61
2023/08/11 03:18:33;;;;;;;;;;;;;;;21.61;55.80;101964.91;5065684;28;19924;-62
2023/08/11 03:20:58;;;;;;;;;;;;;;;21.61;55.97;101964.06;5065310;28;20027;-63
2023/08/11 03:23:23;;;;;;;;;;;;;;;21.59;55.75;101964.22;5065988;28;20354;-54
2023/08/11 03:25:48;;;;;;;;;;;;;;;21.59;55.64;101969.66;5065315;28;19924;-62
2023/08/11 03:28:14;;;;;;;;;;;;;;;21.60;55.74;101967.78;5064816;28;19912;-62
2023/08/11 03:30:39;;;;;;;;;;;;;;;21.59;55.87;101966.09;5065151;28;19912;-63
2023/08/11 03:33:04;;;;;;;;;;;;;;;21.58;55.58;101965.25;5065652;28;19972;-61
2023/08/11 03:35:33;;;;;;;;;;;;;;;21.58;55.89;101967.06;5065443;28;19955;-62
2023/08/11 03:37:58;;;;;;;;;;;;;;;21.58;55.82;101969.78;5064219;28;19920;-63
2023/08/11 03:40:23;;;;;;;;;;;;;;;21.57;55.89;101963.53;5065228;28;19912;-62
2023/08/11 03:42:49;;;;;;;;;;;;;;;21.56;55.95;101959.13;5064971;28;20030;-62
2023/08/11 03:45:14;;;;;;;;;;;;;;;21.57;55.75;101959.97;5065378;28;19920;-62
2023/08/11 03:47:40;;;;;;;;;;;;;;;21.57;55.50;101962.69;5064873;28;19952;-62
2023/08/11 03:50:06;;;;;;;;;;;;;;;21.56;55.67;101963.69;5064969;28;19913;-61
2023/08/11 03:52:32;;;;;;;;;;;;;;;21.56;55.65;101961.84;5065528;28;19984;-61
2023/08/11 03:54:57;;;;;;;;;;;;;;;21.56;55.70;101955.59;5063874;28;19917;-59
2023/08/11 03:57:22;;;;;;;;;;;;;;;21.55;55.54;101956.59;5064975;28;19912;-61
2023/08/11 03:59:47;;;;;;;;;;;;;;;21.54;55.46;101958.47;5064280;28;19963;-58
2023/08/11 04:02:13;;;;;;;;;;;;;;;21.54;55.53;101953.03;5065136;28;20324;-58
2023/08/11 04:04:38;;;;;;;;;;;;;;;21.55;55.74;101953.91;5064274;28;19913;-62
2023/08/11 04:07:05;;;;;;;;;;;;;;;21.54;55.54;101949.50;5097305;28;19916;-62
2023/08/11 04:09:30;;;;;;;;;;;;;;;21.52;55.79;101949.63;5064802;28;19919;-62
2023/08/11 04:11:56;;;;;;;;;;;;;;;21.53;55.59;101950.47;5064592;28;19912;-62
2023/08/11 04:14:21;;;;;;;;;;;;;;;21.53;55.67;101959.44;5064449;28;19912;-62
2023/08/11 04:16:47;;;;;;;;;;;;;;;21.53;55.67;101958.59;5063637;28;19924;-61
2023/08/11 04:19:12;;;;;;;;;;;;;;;21.52;55.53;101954.19;5060347;28;19913;-62
2023/08/11 04:21:40;;;;;;;;;;;;;;;21.51;55.62;101950.66;5064082;28;19921;-62
2023/08/11 04:24:05;;;;;;;;;;;;;;;21.52;55.94;101952.34;5064569;28;19912;-62
2023/08/11 04:26:30;;;;;;;;;;;;;;;21.52;56.06;101960.47;5064417;28;19928;-62
2023/08/11 04:28:55;;;;;;;;;;;;;;;21.52;56.37;101948.78;5063773;28;19913;-62
2023/08/11 04:31:21;;;;;;;;;;;;;;;21.52;56.06;101946.94;5064356;28;20300;-60
2023/08/11 04:33:46;;;;;;;;;;;;;;;21.52;56.06;101946.94;5064042;28;20373;-62
2023/08/11 04:36:11;;;;;;;;;;;;;;;21.52;56.19;101954.19;5064051;28;19913;-63
2023/08/11 04:38:36;;;;;;;;;;;;;;;21.52;56.19;101946.09;5063752;28;19921;-62
2023/08/11 04:41:01;;;;;;;;;;;;;;;21.52;56.49;101946.09;5064248;28;19917;-61
2023/08/11 04:43:27;;;;;;;;;;;;;;;21.53;56.42;101947.78;5065870;28;19963;-62
2023/08/11 04:45:52;;;;;;;;;;;;;;;21.52;56.31;101941.53;5063951;28;19917;-62
2023/08/11 04:48:17;;;;;;;;;;;;;;;21.53;56.43;101942.38;5063820;28;19916;-61
2023/08/11 04:50:46;;;;;;;;;;;;;;;21.53;56.71;101937.78;5062436;28;19920;-62
2023/08/11 04:53:11;;;;;;;;;;;;;;;21.53;56.41;101943.22;5063740;28;19935;-62
2023/08/11 04:55:39;;;;;;;;;;;;;;;21.53;56.71;101939.66;5063712;28;19940;-62
2023/08/11 04:58:04;;;;;;;;;;;;;;;21.52;56.65;101936.09;5063344;28;19919;-62
2023/08/11 05:00:30;;;;;;;;;;;;;;;21.54;56.68;101930.56;5063540;28;19941;-62
2023/08/11 05:02:55;;;;;;;;;;;;;;;21.54;56.70;101938.66;5063478;28;19975;-61
2023/08/11 05:05:21;;;;;;;;;;;;;;;21.54;56.89;101933.25;5062831;28;19960;-62
2023/08/11 05:07:46;;;;;;;;;;;;;;;21.55;56.68;101932.25;5060182;28;20140;-62
2023/08/11 05:10:11;;;;;;;;;;;;;;;21.53;56.62;101929.69;5063667;28;19935;-61
2023/08/11 05:12:37;;;;;;;;;;;;;;;21.53;56.79;101924.25;5063132;28;19935;-62
2023/08/11 05:15:03;;;;;;;;;;;;;;;21.53;56.77;101921.56;5061969;28;19938;-61
2023/08/11 05:17:29;;;;;;;;;;;;;;;21.54;56.82;101917.88;5063258;28;19921;-62
2023/08/11 05:19:54;;;;;;;;;;;;;;;21.54;56.75;101907.03;5062638;28;19984;-62
2023/08/11 05:22:19;;;;;;;;;;;;;;;21.54;56.93;101907.03;5062780;28;19920;-62
2023/08/11 05:24:44;;;;;;;;;;;;;;;21.54;56.99;101915.16;5063023;28;19916;-62
2023/08/11 05:27:10;;;;;;;;;;;;;;;20.79;56.94;101795.88;5063140;28;19917;-62
2023/08/11 05:29:35;;;;;;;;;;;;;;;21.55;57.17;101910.59;5061117;28;19948;-61
2023/08/11 05:32:00;;;;;;;;;;;;;;;21.55;57.21;101913.31;5063384;28;19923;-62
2023/08/11 05:34:25;;;;;;;;;;;;;;;21.56;57.28;101915.00;5062970;28;20019;-56
2023/08/11 05:36:51;;;;;;;;;;;;;;;21.55;57.42;101914.16;5060926;28;19937;-62
2023/08/11 05:39:16;;;;;;;;;;;;;;;21.56;57.43;101912.28;5063381;28;19959;-62
2023/08/11 05:41:41;;;;;;;;;;;;;;;21.57;57.25;101917.53;5062590;28;20330;-62
2023/08/11 05:44:07;;;;;;;;;;;;;;;21.56;57.28;101905.00;5053290;28;20735;-62
2023/08/11 05:46:32;;;;;;;;;;;;;;;21.57;57.55;101901.28;5062300;28;19935;-61
2023/08/11 05:48:57;;;;;;;;;;;;;;;21.57;57.19;101909.41;5061318;28;20008;-62
2023/08/11 05:51:22;;;;;;;;;;;;;;;21.57;57.31;101897.72;5060821;28;19917;-62
2023/08/11 05:53:48;;;;;;;;;;;;;;;21.57;56.97;101903.16;5061708;28;19916;-62
2023/08/11 05:56:13;;;;;;;;;;;;;;;21.57;57.35;101895.88;5062431;28;19917;-62
2023/08/11 05:58:38;;;;;;;;;;;;;;;21.56;57.23;101901.47;5093702;28;19913;-62
2023/08/11 06:01:04;;;;;;;;;;;;;;;21.57;56.87;101897.72;5061532;28;19944;-61
2023/08/11 06:03:32;;;;;;;;;;;;;;;21.56;57.19;101891.47;5056439;28;20878;-62
2023/08/11 06:06:06;;;;;;;;;;;;;;;21.56;56.96;101898.75;5059405;28;19924;-62
2023/08/11 06:08:31;;;;;;;;;;;;;;;21.56;57.19;101896.03;5058967;28;19924;-62
2023/08/11 06:10:56;;;;;;;;;;;;;;;21.56;56.94;101898.75;5058906;28;20637;-56
2023/08/11 06:13:22;;;;;;;;;;;;;;;21.56;57.05;101896.03;5059235;28;19939;-56
2023/08/11 06:15:48;;;;;;;;;;;;;;;21.56;56.97;101899.59;5062133;28;19913;-62
2023/08/11 06:18:13;;;;;;;;;;;;;;;21.56;56.92;101893.34;5060941;28;19923;-57
2023/08/11 06:20:39;;;;;;;;;;;;;;;21.56;57.22;101896.88;5065165;28;19957;-62
2023/08/11 06:23:04;;;;;;;;;;;;;;;21.56;56.92;101905.00;5061899;28;19917;-61
2023/08/11 06:25:29;;;;;;;;;;;;;;;21.56;57.00;101902.31;5062424;28;19927;-62
2023/08/11 06:27:54;;;;;;;;;;;;;;;21.58;57.16;101912.94;5061353;28;19987;-62
2023/08/11 06:30:19;;;;;;;;;;;;;;;21.57;56.96;101911.25;5064391;28;19948;-62
2023/08/11 06:32:45;;;;;;;;;;;;;;;21.57;57.05;101911.25;5063532;28;19916;-62
2023/08/11 06:35:10;;;;;;;;;;;;;;;21.57;57.05;101906.69;5064320;28;19916;-61
2023/08/11 06:37:35;;;;;;;;;;;;;;;20.94;57.02;101817.75;5063471;28;19984;-62
2023/08/11 06:40:00;;;;;;;;;;;;;;;21.58;56.86;101907.53;5065225;28;19967;-62
2023/08/11 06:42:26;;;;;;;;;;;;;;;21.57;57.00;101914.81;5064985;28;19932;-62
2023/08/11 06:44:51;;;;;;;;;;;;;;;21.58;57.09;101912.94;5062254;28;19927;-58
2023/08/11 06:47:16;;;;;;;;;;;;;;;21.58;57.18;101911.13;5064263;28;19920;-58
2023/08/11 06:49:41;;;;;;;;;;;;;;;21.59;57.14;101911.97;5062016;28;20457;-61
2023/08/11 06:52:07;;;;;;;;;;;;;;;21.59;56.84;101914.69;5063922;28;20011;-62
2023/08/11 06:54:33;;;;;;;;;;;;;;;21.60;56.87;101910.94;5064909;28;19924;-61
2023/08/11 06:56:59;;;;;;;;;;;;;;;21.59;56.71;101915.50;5063197;28;19943;-55
2023/08/11 06:59:24;;;;;;;;;;;;;;;21.60;56.91;101919.06;5060788;28;19924;-62
2023/08/11 07:01:49;;;;;;;;;;;;;;;21.60;56.62;101914.50;5062400;28;19921;-62
2023/08/11 07:04:14;;;;;;;;;;;;;;;21.62;56.68;101914.31;5061443;28;19921;-62
2023/08/11 07:06:39;;;;;;;;;;;;;;;21.62;56.74;101917.03;5061684;28;19982;-60
2023/08/11 07:09:05;;;;;;;;;;;;;;;21.62;56.92;101917.91;5062433;28;19916;-61
2023/08/11 07:11:30;;;;;;;;;;;;;;;21.62;56.89;101917.91;5062922;28;19921;-61
2023/08/11 07:13:56;;;;;;;;;;;;;;;21.62;56.71;101919.75;5064564;28;19996;-62
2023/08/11 07:16:21;;;;;;;;;;;;;;;21.62;56.76;101917.91;5064123;28;20445;-62
2023/08/11 07:18:46;;;;;;;;;;;;;;;21.63;56.91;101921.47;5063151;28;19927;-62
2023/08/11 07:21:11;;;;;;;;;;;;;;;21.65;56.79;101914.00;5064293;28;20344;-61
2023/08/11 07:23:36;;;;;;;;;;;;;;;21.64;56.61;101920.44;5061714;28;19921;-59
2023/08/11 07:26:02;;;;;;;;;;;;;;;21.65;56.72;101916.72;5062124;28;19921;-61
2023/08/11 07:28:27;;;;;;;;;;;;;;;21.66;56.79;101927.41;5063032;28;19912;-62
2023/08/11 07:30:52;;;;;;;;;;;;;;;21.65;56.75;101922.97;5056472;28;19919;-60
2023/08/11 07:33:18;;;;;;;;;;;;;;;21.67;56.52;101925.53;5063519;28;19924;-60
2023/08/11 07:35:43;;;;;;;;;;;;;;;21.67;56.47;101928.25;5061153;28;20583;-60
2023/08/11 07:38:08;;;;;;;;;;;;;;;21.67;56.33;101926.38;5062263;28;19977;-60
2023/08/11 07:40:33;;;;;;;;;;;;;;;21.67;56.41;101926.38;5059754;28;19938;-62
2023/08/11 07:42:59;;;;;;;;;;;;;;;21.68;56.37;101925.38;5059337;28;19996;-63
2023/08/11 07:45:24;;;;;;;;;;;;;;;21.68;56.35;101925.38;5063243;28;19921;-62
2023/08/11 07:47:49;;;;;;;;;;;;;;;21.68;56.46;101924.53;5059305;28;19968;-60
2023/08/11 07:50:15;;;;;;;;;;;;;;;21.68;56.44;101925.38;5059104;28;19917;-62
2023/08/11 07:52:40;;;;;;;;;;;;;;;21.69;56.54;101927.06;5064401;28;19979;-62
2023/08/11 07:55:05;;;;;;;;;;;;;;;21.68;56.33;101916.41;5064825;28;20555;-61
2023/08/11 07:57:30;;;;;;;;;;;;;;;21.68;56.19;101924.53;5063177;28;20006;-62
2023/08/11 07:59:57;;;;;;;;;;;;;;;21.67;56.43;101918.25;5063966;28;20064;-62
2023/08/11 08:02:22;;;;;;;;;;;;;;;21.67;56.14;101920.97;5064912;28;19912;-61
2023/08/11 08:04:47;;;;;;;;;;;;;;;21.68;56.47;101924.53;5063650;28;19943;-61
2023/08/11 08:07:13;;;;;;;;;;;;;;;21.68;56.39;101919.09;5064031;28;20717;-61
2023/08/11 08:09:38;;;;;;;;;;;;;;;21.68;56.40;101913.69;5063882;28;19913;-62
2023/08/11 08:12:04;;;;;;;;;;;;;;;21.68;56.49;101919.94;5080480;28;20328;-62
2023/08/11 08:14:29;;;;;;;;;;;;;;;21.68;56.38;101928.06;5064598;28;19913;-62
2023/08/11 08:16:54;;;;;;;;;;;;;;;21.69;56.47;101923.50;5064391;28;19935;-62
2023/08/11 08:19:20;;;;;;;;;;;;;;;21.68;56.47;101925.38;5064351;28;19917;-62
2023/08/11 08:21:46;;;;;;;;;;;;;;;21.69;56.23;101928.91;5063991;28;19970;-61
2023/08/11 08:24:11;;;;;;;;;;;;;;;21.68;56.25;101922.66;5064861;28;20079;-62
2023/08/11 08:26:37;;;;;;;;;;;;;;;21.68;56.34;101925.38;5063840;28;20290;-60
2023/08/11 08:29:03;;;;;;;;;;;;;;;21.68;56.18;101928.06;5063902;28;19916;-62
2023/08/11 08:31:29;;;;;;;;;;;;;;;21.69;56.52;101931.63;5064546;28;20330;-61
2023/08/11 08:33:54;;;;;;;;;;;;;;;21.68;56.15;101928.06;5064173;28;19980;-61
2023/08/11 08:36:19;;;;;;;;;;;;;;;21.69;56.63;101931.63;5063459;28;19917;-60
2023/08/11 08:38:45;;;;;;;;;;;;;;;21.69;56.39;101934.34;5064121;28;19920;-62
2023/08/11 08:41:10;;;;;;;;;;;;;;;21.68;56.20;101924.53;5063112;28;20003;-60
2023/08/11 08:43:35;;;;;;;;;;;;;;;21.69;56.33;101926.22;5063722;28;20353;-61
2023/08/11 08:46:03;;;;;;;;;;;;;;;21.69;56.54;101921.63;5063953;28;19916;-62
2023/08/11 08:48:55;;;;;;;;;;;;;;;21.69;56.46;101918.09;5095893;28;19934;-62
2023/08/11 08:51:20;;;;;;;;;;;;;;;21.69;56.16;101913.53;5061463;28;19919;-61
2023/08/11 08:53:45;;;;;;;;;;;;;;;21.68;56.44;101911.84;5063858;28;19913;-62
2023/08/11 08:56:11;;;;;;;;;;;;;;;21.68;56.19;101909.13;5063948;28;19948;-62
2023/08/11 08:58:36;;;;;;;;;;;;;;;21.69;56.39;101909.97;5095553;28;19913;-62
2023/08/11 09:01:01;;;;;;;;;;;;;;;21.69;56.37;101910.81;5063277;28;19931;-62
2023/08/11 09:03:29;;;;;;;;;;;;;;;21.70;56.24;101909.78;5064058;28;19917;-62
2023/08/11 09:05:55;;;;;;;;;;;;;;;21.71;56.45;101913.38;5094836;28;19988;-62
2023/08/11 09:08:20;;;;;;;;;;;;;;;21.71;56.64;101913.38;5096655;28;19932;-61
2023/08/11 09:10:45;;;;;;;;;;;;;;;21.71;56.51;101907.97;5064851;28;20011;-62
2023/08/11 09:13:11;;;;;;;;;;;;;;;21.71;56.56;101899.84;5063799;28;19913;-60
2023/08/11 09:15:36;;;;;;;;;;;;;;;21.71;56.64;101906.09;5063052;28;19917;-62
2023/08/11 09:18:02;;;;;;;;;;;;;;;21.71;56.33;101900.69;5062331;28;19919;-62
2023/08/11 09:20:27;;;;;;;;;;;;;;;21.72;56.71;101898.81;5063057;28;19948;-62
2023/08/11 09:22:52;;;;;;;;;;;;;;;21.73;56.29;101907.78;5062305;28;19912;-61
2023/08/11 09:25:18;;;;;;;;;;;;;;;21.73;56.74;101902.38;5063225;28;19917;-62
2023/08/11 09:27:43;;;;;;;;;;;;;;;21.73;56.66;101903.22;5063416;28;19924;-60
2023/08/11 09:30:10;;;;;;;;;;;;;;;21.74;56.61;101910.31;5062358;28;19917;-58
2023/08/11 09:32:35;;;;;;;;;;;;;;;21.74;56.69;101901.34;5063315;28;19989;-62
2023/08/11 09:35:02;;;;;;;;;;;;;;;21.75;56.74;101897.63;5061508;28;19925;-56
2023/08/11 09:37:27;;;;;;;;;;;;;;;21.77;56.83;101898.34;5063656;28;19943;-62
2023/08/11 09:39:56;;;;;;;;;;;;;;;21.76;56.64;101897.50;5062630;28;19918;-57
2023/08/11 09:42:21;;;;;;;;;;;;;;;21.76;56.86;101892.06;5063445;28;19917;-61
2023/08/11 09:44:50;;;;;;;;;;;;;;;21.79;56.77;101896.28;5061155;28;19987;-61
2023/08/11 09:47:16;;;;;;;;;;;;;;;21.78;56.89;101897.31;5063259;28;19917;-61
2023/08/11 09:49:41;;;;;;;;;;;;;;;21.79;56.69;101899.00;5062466;28;20431;-61
2023/08/11 09:52:07;;;;;;;;;;;;;;;21.79;56.96;101902.59;5062713;28;19989;-62
2023/08/11 09:54:32;;;;;;;;;;;;;;;21.80;56.76;101904.28;5095648;28;19913;-61
2023/08/11 09:56:57;;;;;;;;;;;;;;;21.81;56.82;101888.88;5062144;28;19920;-61
2023/08/11 09:59:22;;;;;;;;;;;;;;;21.83;56.71;101900.38;5062124;28;19975;-60
2023/08/11 10:01:48;;;;;;;;;;;;;;;21.83;56.81;101895.81;5063381;28;20273;-61
2023/08/11 10:04:36;;;;;;;;;;;;;;;21.84;56.86;101905.66;5064055;28;19923;-62
2023/08/11 10:07:01;;;;;;;;;;;;;;;21.85;56.80;101901.91;5063761;28;19948;-61
2023/08/11 10:09:27;;;;;;;;;;;;;;;21.87;56.70;101896.31;5095107;28;19920;-62
2023/08/11 10:11:52;;;;;;;;;;;;;;;21.87;56.85;101897.16;5061309;28;19920;-62
2023/08/11 10:14:18;;;;;;;;;;;;;;;21.88;56.76;101889.91;5094137;28;19917;-61
2023/08/11 10:16:44;;;;;;;;;;;;;;;21.89;56.51;101886.19;5062740;28;19963;-62
2023/08/11 10:19:09;;;;;;;;;;;;;;;21.90;56.86;101890.59;5061422;28;19913;-61
2023/08/11 10:21:34;;;;;;;;;;;;;;;21.91;56.54;101886.84;5094613;28;19925;-62
2023/08/11 10:24:00;;;;;;;;;;;;;;;21.92;56.56;101892.13;5062573;28;19913;-62
2023/08/11 10:26:25;;;;;;;;;;;;;;;21.92;56.67;101888.59;5060112;28;20354;-61
2023/08/11 10:28:50;;;;;;;;;;;;;;;21.93;56.70;101885.69;5093882;28;19913;-62
2023/08/11 10:31:16;;;;;;;;;;;;;;;21.94;56.73;101876.56;5089243;28;19917;-62
2023/08/11 10:33:47;;;;;;;;;;;;;;;21.95;56.58;101877.41;5061164;28;19935;-61
2023/08/11 10:36:12;;;;;;;;;;;;;;;21.95;56.76;101875.53;5062083;28;19920;-61
2023/08/11 10:38:37;;;;;;;;;;;;;;;;;;5094746;28;19913;-62
2023/08/11 10:41:02;;;;;;;;;;;;;;;22.01;57.11;101873.19;5062425;28;19978;-62
2023/08/11 10:43:34;;;;;;;;;;;;;;;22.01;57.06;101873.19;5062222;28;19913;-61
2023/08/11 10:46:21;;;;;;;;;;;;;;;22.05;57.41;101871.84;5059615;28;19923;-51
2023/08/11 10:48:46;;;;;;;;;;;;;;;22.05;57.14;101879.97;5062318;28;19920;-62
2023/08/11 10:51:29;;;;;;;;;;;;;;;22.06;57.46;101879.81;5062794;28;19913;-62
2023/08/11 10:53:59;;;;;;;;;;;;;;;22.09;57.69;101884.03;5062252;28;20292;-62
2023/08/11 10:56:29;;;;;;;;;;;;;;;22.11;57.74;101887.44;5061454;28;19963;-62
2023/08/11 10:59:03;;;;;;;;;;;;;;;22.10;57.69;101886.59;5059917;28;19917;-62
2023/08/11 11:01:28;;;;;;;;;;;;;;;22.11;57.48;101890.13;5075482;28;20317;-62
2023/08/11 11:03:54;;;;;;;;;;;;;;;22.14;57.69;101889.84;5063205;28;19988;-62
2023/08/11 11:06:21;;;;;;;;;;;;;;;22.16;57.79;101885.09;5065117;28;20004;-60
2023/08/11 11:08:46;;;;;;;;;;;;;;;22.15;57.84;101883.41;5065809;28;19913;-60
2023/08/11 11:11:11;;;;;;;;;;;;;;;22.16;57.63;101877.81;5066075;28;19919;-62
2023/08/11 11:13:36;;;;;;;;;;;;;;;22.20;57.95;101871.06;5063875;28;19917;-61
2023/08/11 11:16:01;;;;;;;;;;;;;;;22.22;58.29;101879.03;5072232;28;19963;-62
2023/08/11 11:18:27;;;;;;;;;;;;;;;22.25;58.33;101870.53;5065732;28;19917;-62
2023/08/11 11:20:52;;;;;;;;;;;;;;;22.27;58.11;101870.41;5065368;28;19932;-62
2023/08/11 11:23:18;;;;;;;;;;;;;;;22.30;58.27;101870.03;5098145;28;19919;-62
2023/08/11 11:25:43;;;;;;;;;;;;;;;22.30;58.06;101861.91;5064778;28;19980;-62
2023/08/11 11:28:11;;;;;;;;;;;;;;;22.33;57.99;101867.00;5065850;28;19913;-60
2023/08/11 11:30:36;;;;;;;;;;;;;;;22.34;57.97;101871.41;5065142;28;19920;-62
2023/08/11 11:33:02;;;;;;;;;;;;;;;22.35;57.97;101867.69;5098144;28;19974;-62
2023/08/11 11:35:27;;;;;;;;;;;;;;;22.38;58.00;101875.47;5097058;28;19924;-61
2023/08/11 11:37:52;;;;;;;;;;;;;;;22.38;57.95;101873.59;5064770;28;20409;-61
2023/08/11 11:40:17;;;;;;;;;;;;;;;22.39;58.12;101872.59;5065577;28;20388;-62
2023/08/11 11:42:42;;;;;;;;;;;;;;;22.41;57.80;101864.31;5065096;28;19912;-63
2023/08/11 11:45:09;;;;;;;;;;;;;;;22.40;58.19;101862.63;5064386;28;20340;-58
2023/08/11 11:47:34;;;;;;;;;;;;;;;22.40;58.30;101859.91;5064102;28;19943;-60
2023/08/11 11:50:03;;;;;;;;;;;;;;;22.42;58.37;101865.97;5097552;28;19912;-61
2023/08/11 11:52:28;;;;;;;;;;;;;;;22.40;58.34;101860.75;5063803;28;19935;-60
2023/08/11 11:54:57;;;;;;;;;;;;;;;22.40;58.64;101860.75;5064197;28;19976;-61
2023/08/11 11:57:22;;;;;;;;;;;;;;;22.39;58.36;101856.34;5097498;28;19955;-61
2023/08/11 11:59:48;;;;;;;;;;;;;;;22.38;58.40;101851.94;5064336;28;19912;-61
2023/08/11 12:02:16;;;;;;;;;;;;;;;22.36;58.21;101853.13;5064765;28;20423;-62
2023/08/11 12:04:42;;;;;;;;;;;;;;;22.35;58.23;101851.44;5063996;28;20294;-60
2023/08/11 12:07:07;;;;;;;;;;;;;;;22.34;58.43;101853.28;5096945;28;19921;-62
2023/08/11 12:09:33;;;;;;;;;;;;;;;22.34;58.46;101855.13;5066381;28;19921;-61
2023/08/11 12:11:58;;;;;;;;;;;;;;;22.33;58.26;101842.63;5064679;28;19913;-61
2023/08/11 12:14:27;;;;;;;;;;;;;;;22.33;58.54;101850.75;5096200;28;19947;-61
2023/08/11 12:16:52;;;;;;;;;;;;;;;22.32;58.52;101854.47;5063668;28;19952;-60
2023/08/11 12:19:17;;;;;;;;;;;;;;;22.32;58.67;101851.78;5064729;28;19921;-60
2023/08/11 12:21:43;;;;;;;;;;;;;;;22.31;58.64;101845.50;5063775;28;19925;-62
2023/08/11 12:24:11;;;;;;;;;;;;;;;22.32;58.35;101846.34;5065397;28;19938;-61
2023/08/11 12:26:36;;;;;;;;;;;;;;;22.32;58.55;101846.34;5064299;28;19921;-61
2023/08/11 12:29:01;;;;;;;;;;;;;;;22.32;58.42;101840.94;5064116;28;19913;-62
2023/08/11 12:31:28;;;;;;;;;;;;;;;22.32;58.41;101841.78;5063305;28;20145;-61